M/y Patriot — WDH2468 — position and weather

sailwx.info

Track history (hours):
 
Tides and Currents Weather Stations Pressure Air Temp Water Temp Dewpoint Dewpoint Depression Visibility Wind Speed Wind Dir Waves Ship Positions

M/y Patriot

Owner: Whipple mr, Thomas G, Duvall, WA. More information available from US FCC via Universal Licensing System and Coast Guard Vessel Documentation Center.

Last reported at 2018-Aug-14 02:48 UTC. Time now 2018-Aug-14 07:04 UTC.
Position N 47°39' W 122°21'.

Length 19 m.

Type: Pleasure craft. MMSI: 367597910.

Date/timePositionNaut miles runAvg speedWind from/ knotsBaromVisibWave heightAir tempDewpointWater temp
2018-Aug-14 02:48N 47°39' W 122°21'1 2.3
2018-Aug-14 02:30N 47°39' W 122°21'2 3.7
2018-Aug-14 02:00N 47°40' W 122°24'0 0.3
2018-Aug-14 01:30N 47°40' W 122°24'3 3.3
2018-Aug-14 00:34N 47°37' W 122°23'1 7.7
2018-Aug-14 00:30N 47°37' W 122°22'3 4.4
2018-Aug-13 23:46N 47°35' W 122°25'1 5.0
2018-Aug-13 23:30N 47°35' W 122°27'2 3.8
2018-Aug-13 23:00N 47°36' W 122°30'0 0.5
2018-Aug-13 22:19N 47°36' W 122°30'0 0.0
2018-Aug-13 21:22N 47°36' W 122°30'0 0.0
2018-Aug-13 20:55N 47°36' W 122°30'0 0.0
2018-Aug-13 20:16N 47°36' W 122°30'0 0.0
2018-Aug-13 19:49N 47°36' W 122°30'0 0.0
2018-Aug-13 19:23N 47°36' W 122°30'0 0.0
2018-Aug-13 17:59N 47°36' W 122°30'0 0.0
2018-Aug-13 17:29N 47°36' W 122°30'0 0.0
2018-Aug-13 16:47N 47°36' W 122°30'0 0.0
2018-Aug-13 16:29N 47°36' W 122°30'0 0.0
2018-Aug-13 15:56N 47°36' W 122°30'0 0.0
2018-Aug-13 14:17N 47°36' W 122°30'0 0.0
2018-Aug-13 13:59N 47°36' W 122°30'0 0.0
2018-Aug-13 13:17N 47°36' W 122°30'0 0.0
2018-Aug-13 12:59N 47°36' W 122°30'0 0.0
2018-Aug-13 12:08N 47°36' W 122°30'0 0.0
2018-Aug-13 11:59N 47°36' W 122°30'0 0.0
2018-Aug-13 11:29N 47°36' W 122°30'0 0.1
2018-Aug-13 10:56N 47°36' W 122°30'0 0.0
2018-Aug-13 10:11N 47°36' W 122°30'0 0.0
2018-Aug-13 09:53N 47°36' W 122°30'0 0.0
2018-Aug-13 09:17N 47°36' W 122°30'0 0.0
2018-Aug-13 08:54N 47°36' W 122°30'0 0.0
2018-Aug-13 08:24N 47°36' W 122°30'0 0.0
2018-Aug-13 08:00N 47°36' W 122°30'0 0.0
2018-Aug-13 07:24N 47°36' W 122°30'0 0.0
2018-Aug-13 06:54N 47°36' W 122°30'0 0.0
2018-Aug-13 06:12N 47°36' W 122°30'0 0.0
2018-Aug-13 06:00N 47°36' W 122°30'0 0.1
2018-Aug-13 05:30N 47°36' W 122°30'0 0.0
2018-Aug-13 05:00N 47°36' W 122°30'0 0.0
2018-Aug-13 04:30N 47°36' W 122°30'0 0.0
2018-Aug-13 04:00N 47°36' W 122°30'0 0.0
2018-Aug-13 03:30N 47°36' W 122°30'0 0.0
2018-Aug-13 03:00N 47°36' W 122°30'0 0.0
2018-Aug-13 02:30N 47°36' W 122°30'0 0.0
2018-Aug-13 01:24N 47°36' W 122°30'0 0.0
2018-Aug-13 00:50N 47°36' W 122°30'1 3.1
2018-Aug-13 00:30N 47°35' W 122°29'3 6.2
2018-Aug-13 00:00N 47°32' W 122°30'0 0.3
2018-Aug-12 23:28N 47°32' W 122°30'0 0.2
2018-Aug-12 23:00N 47°32' W 122°30'0 0.1
2018-Aug-12 22:29N 47°32' W 122°30'1 1.8
2018-Aug-12 22:00N 47°33' W 122°29'2 4.7
2018-Aug-12 21:30N 47°35' W 122°28'1 2.3
2018-Aug-12 21:00N 47°36' W 122°30'0 0.7
2018-Aug-12 20:26N 47°36' W 122°30'0 0.0
2018-Aug-12 19:56N 47°36' W 122°30'0 0.0
2018-Aug-12 19:29N 47°36' W 122°30'0 0.0
2018-Aug-12 18:53N 47°36' W 122°30'0 0.0
2018-Aug-12 18:29N 47°36' W 122°30'0 0.0
2018-Aug-12 17:50N 47°36' W 122°30'0 0.0
2018-Aug-12 17:29N 47°36' W 122°30'0 0.0
2018-Aug-12 16:56N 47°36' W 122°30'0 0.0
2018-Aug-12 16:20N 47°36' W 122°30'0 0.0
2018-Aug-12 15:59N 47°36' W 122°30'0 0.0
2018-Aug-12 15:05N 47°36' W 122°30'0 0.0
2018-Aug-12 14:56N 47°36' W 122°30'0 0.0
2018-Aug-12 14:29N 47°36' W 122°30'0 0.0
2018-Aug-12 13:35N 47°36' W 122°30'0 0.0
2018-Aug-12 13:26N 47°36' W 122°30'0 0.0
2018-Aug-12 12:56N 47°36' W 122°30'0 0.0
2018-Aug-12 12:29N 47°36' W 122°30'0 0.0
2018-Aug-12 11:53N 47°36' W 122°30'0 0.0
2018-Aug-12 11:26N 47°36' W 122°30'0 0.0
2018-Aug-12 10:56N 47°36' W 122°30'0 0.0
2018-Aug-12 09:56N 47°36' W 122°30'0 0.0
2018-Aug-12 09:26N 47°36' W 122°30'0 0.0
2018-Aug-12 08:56N 47°36' W 122°30'0 0.0
2018-Aug-12 08:26N 47°36' W 122°30'0 0.0
2018-Aug-12 07:56N 47°36' W 122°30'0 0.0
2018-Aug-12 07:26N 47°36' W 122°30'0 0.0
2018-Aug-12 06:56N 47°36' W 122°30'0 0.0
2018-Aug-12 06:29N 47°36' W 122°30'0 0.0
2018-Aug-12 05:44N 47°36' W 122°30'0 0.0
2018-Aug-12 05:17N 47°36' W 122°30'0 0.0
2018-Aug-12 04:53N 47°36' W 122°30'0 0.0
2018-Aug-12 04:23N 47°36' W 122°30'0 0.0
2018-Aug-12 03:50N 47°36' W 122°30'0 0.0
2018-Aug-12 03:26N 47°36' W 122°30'0 0.0
2018-Aug-12 02:50N 47°36' W 122°30'0 0.0
2018-Aug-12 02:26N 47°36' W 122°30'0 0.0
2018-Aug-12 01:59N 47°36' W 122°30'0 0.0
2018-Aug-12 01:23N 47°36' W 122°30'0 0.0
2018-Aug-12 00:56N 47°36' W 122°30'0 0.0
2018-Aug-12 00:29N 47°36' W 122°30'0 0.0
2018-Aug-11 23:38N 47°36' W 122°30'0 0.0
2018-Aug-11 23:26N 47°36' W 122°30'0 0.0
2018-Aug-11 22:47N 47°36' W 122°30'0 0.0
2018-Aug-11 22:29N 47°36' W 122°30'0 0.0
2018-Aug-11 21:53N 47°36' W 122°30'0 0.0
2018-Aug-11 21:26N 47°36' W 122°30'0 0.0
2018-Aug-11 20:56N 47°36' W 122°30'0 0.0
2018-Aug-11 20:23N 47°36' W 122°30'0 0.0
2018-Aug-11 19:56N 47°36' W 122°30'0 0.0
2018-Aug-11 19:26N 47°36' W 122°30'0 0.0
2018-Aug-11 18:56N 47°36' W 122°30'0 0.0
2018-Aug-11 18:26N 47°36' W 122°30'0 0.0
2018-Aug-11 17:56N 47°36' W 122°30'0 0.0
2018-Aug-11 16:56N 47°36' W 122°30'0 0.0
2018-Aug-11 16:23N 47°36' W 122°30'0 0.0
2018-Aug-11 15:56N 47°36' W 122°30'0 0.0
2018-Aug-11 15:26N 47°36' W 122°30'0 0.0
2018-Aug-11 14:59N 47°36' W 122°30'0 0.0
2018-Aug-11 14:26N 47°36' W 122°30'0 0.0
2018-Aug-11 13:47N 47°36' W 122°30'0 0.0
2018-Aug-11 13:23N 47°36' W 122°30'0 0.0
2018-Aug-11 12:56N 47°36' W 122°30'0 0.0
2018-Aug-11 12:26N 47°36' W 122°30'0 0.0
2018-Aug-11 11:59N 47°36' W 122°30'0 0.0
2018-Aug-11 11:29N 47°36' W 122°30'0 0.0
2018-Aug-11 10:53N 47°36' W 122°30'0 0.0
2018-Aug-11 10:26N 47°36' W 122°30'0 0.0
2018-Aug-11 09:59N 47°36' W 122°30'0 0.0
2018-Aug-11 09:26N 47°36' W 122°30'0 0.0
2018-Aug-11 08:53N 47°36' W 122°30'0 0.0
2018-Aug-11 08:29N 47°36' W 122°30'0 0.0
2018-Aug-11 07:53N 47°36' W 122°30'0 0.0
2018-Aug-11 04:53N 47°36' W 122°30'0 0.3
2018-Aug-11 04:24N 47°36' W 122°30'3 5.6
2018-Aug-11 03:53N 47°38' W 122°27'3 7.1
2018-Aug-11 03:30N 47°40' W 122°26'2 3.5
2018-Aug-11 03:00N 47°40' W 122°24'0 0.0
2018-Aug-11 02:30N 47°40' W 122°24'2 3.3
2018-Aug-11 02:00N 47°39' W 122°22'1 1.4
2018-Aug-11 01:28N 47°39' W 122°21'0 0.0
2018-Aug-11 00:58N 47°39' W 122°21'0 0.0
2018-Aug-11 00:29N 47°39' W 122°21'0 0.0
2018-Aug-10 23:59N 47°39' W 122°21'0 0.0
2018-Aug-10 23:29N 47°39' W 122°21'0 0.0
2018-Aug-10 22:59N 47°39' W 122°21'0 0.0
2018-Aug-10 22:29N 47°39' W 122°21'0 0.0
2018-Aug-09 23:56N 47°39' W 122°21'0 0.0
2018-Aug-09 22:50N 47°39' W 122°21'0 0.0
2018-Aug-09 22:14N 47°39' W 122°21'0 0.0
2018-Aug-09 21:56N 47°39' W 122°21'0 0.0
2018-Aug-09 19:08N 47°39' W 122°21'0 0.0
2018-Aug-09 18:56N 47°39' W 122°21'0 0.0
2018-Aug-09 17:38N 47°39' W 122°21'0 0.0
2018-Aug-09 17:14N 47°39' W 122°21'0 0.0
2018-Aug-09 16:56N 47°39' W 122°21'0 0.0
2018-Aug-09 16:26N 47°39' W 122°21'0 0.0
2018-Aug-09 15:56N 47°39' W 122°21'0 0.0
2018-Aug-09 09:41N 47°39' W 122°21'0 0.0
2018-Aug-09 08:17N 47°39' W 122°21'0 0.1
2018-Aug-09 04:23N 47°38' W 122°20'0 0.4
2018-Aug-09 03:57N 47°38' W 122°20'0 0.2
2018-Aug-09 03:30N 47°38' W 122°20'0 0.1
2018-Aug-09 03:00N 47°38' W 122°20'0 0.1
2018-Aug-09 02:30N 47°38' W 122°20'1 1.1
2018-Aug-09 01:55N 47°39' W 122°21'0 0.0
2018-Aug-09 01:25N 47°39' W 122°21'0 0.0
2018-Aug-09 00:58N 47°39' W 122°21'0 0.0
2018-Aug-09 00:22N 47°39' W 122°21'0 0.0
2018-Aug-08 23:49N 47°39' W 122°21'0 0.0
2018-Aug-08 23:19N 47°39' W 122°21'0 0.0
2018-Aug-08 22:55N 47°39' W 122°21'0 0.0
2018-Aug-08 22:28N 47°39' W 122°21'0 0.0
2018-Aug-08 21:49N 47°39' W 122°21'0 0.0
2018-Aug-08 21:19N 47°39' W 122°21'0 0.0
2018-Aug-08 20:55N 47°39' W 122°21'0 0.0
2018-Aug-08 20:28N 47°39' W 122°21'0 0.0
2018-Aug-08 19:49N 47°39' W 122°21'0 0.0
2018-Aug-08 19:28N 47°39' W 122°21'0 0.0
2018-Aug-08 18:58N 47°39' W 122°21'0 0.0
2018-Aug-08 18:28N 47°39' W 122°21'0 0.0
2018-Aug-08 17:55N 47°39' W 122°21'0 0.0
2018-Aug-08 17:28N 47°39' W 122°21'0 0.0
2018-Aug-08 16:43N 47°39' W 122°21'0 0.0
2018-Aug-08 16:28N 47°39' W 122°21'0 0.0
2018-Aug-08 15:58N 47°39' W 122°21'0 0.0
2018-Aug-08 15:28N 47°39' W 122°21'0 0.0
2018-Aug-08 14:58N 47°39' W 122°21'0 0.0
2018-Aug-08 14:28N 47°39' W 122°21'0 0.0
2018-Aug-08 13:55N 47°39' W 122°21'0 0.0
2018-Aug-08 13:28N 47°39' W 122°21'0 0.0
2018-Aug-08 12:58N 47°39' W 122°21'0 0.0
2018-Aug-08 12:25N 47°39' W 122°21'0 0.0
2018-Aug-08 11:40N 47°39' W 122°21'0 0.0
2018-Aug-08 11:28N 47°39' W 122°21'0 0.0
2018-Aug-08 10:58N 47°39' W 122°21'0 0.0
2018-Aug-08 10:25N 47°39' W 122°21'0 0.0
2018-Aug-08 09:55N 47°39' W 122°21'0 0.0
2018-Aug-08 09:28N 47°39' W 122°21'0 0.0
2018-Aug-08 08:55N 47°39' W 122°21'0 0.0
2018-Aug-08 08:30N 47°39' W 122°21'0 0.0
2018-Aug-08 08:00N 47°39' W 122°21'0 0.0
2018-Aug-08 07:30N 47°39' W 122°21'0 0.0
2018-Aug-08 07:00N 47°39' W 122°21'0 0.0
2018-Aug-08 06:30N 47°39' W 122°21'0 0.0
2018-Aug-08 06:00N 47°39' W 122°21'0 0.0
2018-Aug-08 05:18N 47°39' W 122°21'0 1.1
2018-Aug-08 04:51N 47°38' W 122°20'0 0.3
2018-Aug-08 04:26N 47°38' W 122°20'0 0.3
2018-Aug-08 03:58N 47°38' W 122°20'0 0.2
2018-Aug-08 03:28N 47°38' W 122°20'0 0.4
2018-Aug-08 02:21N 47°39' W 122°21'0 0.0
2018-Aug-08 02:00N 47°39' W 122°21'0 0.1
2018-Aug-08 01:25N 47°39' W 122°21'0 0.0
2018-Aug-08 00:43N 47°39' W 122°21'0 0.0
2018-Aug-07 20:19N 47°39' W 122°21'0 0.0
2018-Aug-07 19:55N 47°39' W 122°21'0 0.0
2018-Aug-07 19:25N 47°39' W 122°21'0 0.0
2018-Aug-07 18:43N 47°39' W 122°21'0 0.0
2018-Aug-07 18:25N 47°39' W 122°21'0 0.0
2018-Aug-07 17:49N 47°39' W 122°21'0 0.0
2018-Aug-07 17:25N 47°39' W 122°21'0 0.0
2018-Aug-07 16:49N 47°39' W 122°21'0 0.0
2018-Aug-07 16:28N 47°39' W 122°21'0 0.0
2018-Aug-07 15:58N 47°39' W 122°21'0 0.0
2018-Aug-07 15:25N 47°39' W 122°21'0 0.0
2018-Aug-07 14:58N 47°39' W 122°21'0 0.0
2018-Aug-07 14:25N 47°39' W 122°21'0 0.0
2018-Aug-07 13:37N 47°39' W 122°21'0 0.0
2018-Aug-07 13:28N 47°39' W 122°21'0 0.0
2018-Aug-07 09:22N 47°39' W 122°21'0 0.0
2018-Aug-07 08:52N 47°39' W 122°21'0 0.0
2018-Aug-07 08:25N 47°39' W 122°21'0 0.0
2018-Aug-07 07:55N 47°39' W 122°21'0 0.0
2018-Aug-07 07:25N 47°39' W 122°21'0 0.0
2018-Aug-07 06:55N 47°39' W 122°21'0 0.0
2018-Aug-07 06:25N 47°39' W 122°21'0 0.0
2018-Aug-07 05:49N 47°39' W 122°21'0 0.0
2018-Aug-07 05:28N 47°39' W 122°21'0 0.0
2018-Aug-07 04:55N 47°39' W 122°21'0 0.0
2018-Aug-07 04:22N 47°39' W 122°21'0 0.0
2018-Aug-07 03:55N 47°39' W 122°21'0 0.0
2018-Aug-07 03:25N 47°39' W 122°21'0 0.0
2018-Aug-07 00:55N 47°39' W 122°21'0 0.0
2018-Aug-06 22:28N 47°39' W 122°21'0 0.0
2018-Aug-06 20:43N 47°39' W 122°21'0 0.0
2018-Aug-06 20:25N 47°39' W 122°21'0 0.0
2018-Aug-06 19:37N 47°39' W 122°21'0 0.0
2018-Aug-06 19:22N 47°39' W 122°21'0 0.0
2018-Aug-06 18:49N 47°39' W 122°21'0 0.0
2018-Aug-06 18:13N 47°39' W 122°21'0 0.0
2018-Aug-06 17:55N 47°39' W 122°21'0 0.0
2018-Aug-06 17:22N 47°39' W 122°21'0 0.0
2018-Aug-06 16:55N 47°39' W 122°21'0 0.0
2018-Aug-06 16:25N 47°39' W 122°21'0 0.0
2018-Aug-06 15:58N 47°39' W 122°21'0 0.0
2018-Aug-06 15:25N 47°39' W 122°21'0 0.0
2018-Aug-06 14:55N 47°39' W 122°21'0 0.0
2018-Aug-06 14:25N 47°39' W 122°21'0 0.0
2018-Aug-06 13:55N 47°39' W 122°21'0 0.0
2018-Aug-06 13:25N 47°39' W 122°21'0 0.0
2018-Aug-06 09:19N 47°39' W 122°21'0 0.0
2018-Aug-06 06:16N 47°39' W 122°21'0 0.0
2018-Aug-06 05:49N 47°39' W 122°21'0 0.0
2018-Aug-06 05:25N 47°39' W 122°21'0 0.0
2018-Aug-06 04:49N 47°39' W 122°21'0 0.0
2018-Aug-05 23:31N 47°39' W 122°21'0 0.0
2018-Aug-05 23:13N 47°39' W 122°21'0 0.0
2018-Aug-05 22:52N 47°39' W 122°21'0 0.0
2018-Aug-05 22:25N 47°39' W 122°21'0 0.0
2018-Aug-05 20:55N 47°39' W 122°21'0 0.0
2018-Aug-05 20:13N 47°39' W 122°21'0 0.0
2018-Aug-05 19:55N 47°39' W 122°21'0 0.0
2018-Aug-05 19:19N 47°39' W 122°21'0 0.0
2018-Aug-05 18:52N 47°39' W 122°21'0 0.0
2018-Aug-05 18:28N 47°39' W 122°21'0 0.0
2018-Aug-05 17:58N 47°39' W 122°21'0 0.0
2018-Aug-05 17:28N 47°39' W 122°21'0 0.0
2018-Aug-05 16:55N 47°39' W 122°21'0 0.0
2018-Aug-05 16:28N 47°39' W 122°21'0 0.0
2018-Aug-05 15:58N 47°39' W 122°21'0 0.0
2018-Aug-05 15:22N 47°39' W 122°21'0 0.0
2018-Aug-05 14:55N 47°39' W 122°21'0 0.0
2018-Aug-05 14:25N 47°39' W 122°21'0 0.0
2018-Aug-05 13:28N 47°39' W 122°21'0 0.0
2018-Aug-05 11:58N 47°39' W 122°21'0 0.0
2018-Aug-05 09:52N 47°39' W 122°21'0 0.0
2018-Aug-05 09:28N 47°39' W 122°21'0 0.0
2018-Aug-05 08:40N 47°39' W 122°21'0 0.0
2018-Aug-05 08:10N 47°39' W 122°21'0 0.0
2018-Aug-05 07:55N 47°39' W 122°21'0 0.0
2018-Aug-05 03:58N 47°39' W 122°21'0 0.0
2018-Aug-05 03:28N 47°39' W 122°21'0 0.0
2018-Aug-05 02:52N 47°39' W 122°21'0 0.0
2018-Aug-05 02:22N 47°39' W 122°21'0 0.0
2018-Aug-05 01:58N 47°39' W 122°21'0 0.0
2018-Aug-05 01:25N 47°39' W 122°21'0 0.0
2018-Aug-05 00:58N 47°39' W 122°21'0 0.0
2018-Aug-04 21:04N 47°39' W 122°21'0 0.0
2018-Aug-04 19:37N 47°39' W 122°21'0 0.0
2018-Aug-04 16:01N 47°39' W 122°21'0 0.0
2018-Aug-04 15:40N 47°39' W 122°21'0 0.0
2018-Aug-04 15:13N 47°39' W 122°21'0 0.0
2018-Aug-04 14:58N 47°39' W 122°21'0 0.0
2018-Aug-04 14:16N 47°39' W 122°21'0 0.0
2018-Aug-04 10:28N 47°39' W 122°21'0 0.0
2018-Aug-04 09:58N 47°39' W 122°21'0 0.0
2018-Aug-04 09:25N 47°39' W 122°21'0 0.0
2018-Aug-04 08:58N 47°39' W 122°21'0 0.0
2018-Aug-04 08:22N 47°39' W 122°21'0 0.0
2018-Aug-04 07:58N 47°39' W 122°21'0 0.0
2018-Aug-04 07:28N 47°39' W 122°21'0 0.0
2018-Aug-04 06:40N 47°39' W 122°21'0 0.0
2018-Aug-04 06:28N 47°39' W 122°21'1 0.6
2018-Aug-04 05:13N 47°38' W 122°20'  
Track history (hours):
 
Tides and Currents Weather Stations Pressure Air Temp Water Temp Dewpoint Dewpoint Depression Visibility Wind Speed Wind Dir Waves Ship Positions

M/y Patriot

Owner: Whipple mr, Thomas G, Duvall, WA. More information available from US FCC via Universal Licensing System and Coast Guard Vessel Documentation Center.

Last reported at 2018-Aug-14 02:48 UTC. Time now 2018-Aug-14 07:04 UTC.
Position N 47°39' W 122°21'.

Length 19 m.

Type: Pleasure craft. MMSI: 367597910.

Date/timePositionNaut miles runAvg speedWind from/ knotsBaromVisibWave heightAir tempDewpointWater temp
2018-Aug-14 02:48N 47°39' W 122°21'1 2.3
2018-Aug-14 02:30N 47°39' W 122°21'2 3.7
2018-Aug-14 02:00N 47°40' W 122°24'0 0.3
2018-Aug-14 01:30N 47°40' W 122°24'3 3.3
2018-Aug-14 00:34N 47°37' W 122°23'1 7.7
2018-Aug-14 00:30N 47°37' W 122°22'3 4.4
2018-Aug-13 23:46N 47°35' W 122°25'1 5.0
2018-Aug-13 23:30N 47°35' W 122°27'2 3.8
2018-Aug-13 23:00N 47°36' W 122°30'0 0.5
2018-Aug-13 22:19N 47°36' W 122°30'0 0.0
2018-Aug-13 21:22N 47°36' W 122°30'0 0.0
2018-Aug-13 20:55N 47°36' W 122°30'0 0.0
2018-Aug-13 20:16N 47°36' W 122°30'0 0.0
2018-Aug-13 19:49N 47°36' W 122°30'0 0.0
2018-Aug-13 19:23N 47°36' W 122°30'0 0.0
2018-Aug-13 17:59N 47°36' W 122°30'0 0.0
2018-Aug-13 17:29N 47°36' W 122°30'0 0.0
2018-Aug-13 16:47N 47°36' W 122°30'0 0.0
2018-Aug-13 16:29N 47°36' W 122°30'0 0.0
2018-Aug-13 15:56N 47°36' W 122°30'0 0.0
2018-Aug-13 14:17N 47°36' W 122°30'0 0.0
2018-Aug-13 13:59N 47°36' W 122°30'0 0.0
2018-Aug-13 13:17N 47°36' W 122°30'0 0.0
2018-Aug-13 12:59N 47°36' W 122°30'0 0.0
2018-Aug-13 12:08N 47°36' W 122°30'0 0.0
2018-Aug-13 11:59N 47°36' W 122°30'0 0.0
2018-Aug-13 11:29N 47°36' W 122°30'0 0.1
2018-Aug-13 10:56N 47°36' W 122°30'0 0.0
2018-Aug-13 10:11N 47°36' W 122°30'0 0.0
2018-Aug-13 09:53N 47°36' W 122°30'0 0.0
2018-Aug-13 09:17N 47°36' W 122°30'0 0.0
2018-Aug-13 08:54N 47°36' W 122°30'0 0.0
2018-Aug-13 08:24N 47°36' W 122°30'0 0.0
2018-Aug-13 08:00N 47°36' W 122°30'0 0.0
2018-Aug-13 07:24N 47°36' W 122°30'0 0.0
2018-Aug-13 06:54N 47°36' W 122°30'0 0.0
2018-Aug-13 06:12N 47°36' W 122°30'0 0.0
2018-Aug-13 06:00N 47°36' W 122°30'0 0.1
2018-Aug-13 05:30N 47°36' W 122°30'0 0.0
2018-Aug-13 05:00N 47°36' W 122°30'0 0.0
2018-Aug-13 04:30N 47°36' W 122°30'0 0.0
2018-Aug-13 04:00N 47°36' W 122°30'0 0.0
2018-Aug-13 03:30N 47°36' W 122°30'0 0.0
2018-Aug-13 03:00N 47°36' W 122°30'0 0.0
2018-Aug-13 02:30N 47°36' W 122°30'0 0.0
2018-Aug-13 01:24N 47°36' W 122°30'0 0.0
2018-Aug-13 00:50N 47°36' W 122°30'1 3.1
2018-Aug-13 00:30N 47°35' W 122°29'3 6.2
2018-Aug-13 00:00N 47°32' W 122°30'0 0.3
2018-Aug-12 23:28N 47°32' W 122°30'0 0.2
2018-Aug-12 23:00N 47°32' W 122°30'0 0.1
2018-Aug-12 22:29N 47°32' W 122°30'1 1.8
2018-Aug-12 22:00N 47°33' W 122°29'2 4.7
2018-Aug-12 21:30N 47°35' W 122°28'1 2.3
2018-Aug-12 21:00N 47°36' W 122°30'0 0.7
2018-Aug-12 20:26N 47°36' W 122°30'0 0.0
2018-Aug-12 19:56N 47°36' W 122°30'0 0.0
2018-Aug-12 19:29N 47°36' W 122°30'0 0.0
2018-Aug-12 18:53N 47°36' W 122°30'0 0.0
2018-Aug-12 18:29N 47°36' W 122°30'0 0.0
2018-Aug-12 17:50N 47°36' W 122°30'0 0.0
2018-Aug-12 17:29N 47°36' W 122°30'0 0.0
2018-Aug-12 16:56N 47°36' W 122°30'0 0.0
2018-Aug-12 16:20N 47°36' W 122°30'0 0.0
2018-Aug-12 15:59N 47°36' W 122°30'0 0.0
2018-Aug-12 15:05N 47°36' W 122°30'0 0.0
2018-Aug-12 14:56N 47°36' W 122°30'0 0.0
2018-Aug-12 14:29N 47°36' W 122°30'0 0.0
2018-Aug-12 13:35N 47°36' W 122°30'0 0.0
2018-Aug-12 13:26N 47°36' W 122°30'0 0.0
2018-Aug-12 12:56N 47°36' W 122°30'0 0.0
2018-Aug-12 12:29N 47°36' W 122°30'0 0.0
2018-Aug-12 11:53N 47°36' W 122°30'0 0.0
2018-Aug-12 11:26N 47°36' W 122°30'0 0.0
2018-Aug-12 10:56N 47°36' W 122°30'0 0.0
2018-Aug-12 09:56N 47°36' W 122°30'0 0.0
2018-Aug-12 09:26N 47°36' W 122°30'0 0.0
2018-Aug-12 08:56N 47°36' W 122°30'0 0.0
2018-Aug-12 08:26N 47°36' W 122°30'0 0.0
2018-Aug-12 07:56N 47°36' W 122°30'0 0.0
2018-Aug-12 07:26N 47°36' W 122°30'0 0.0
2018-Aug-12 06:56N 47°36' W 122°30'0 0.0
2018-Aug-12 06:29N 47°36' W 122°30'0 0.0
2018-Aug-12 05:44N 47°36' W 122°30'0 0.0
2018-Aug-12 05:17N 47°36' W 122°30'0 0.0
2018-Aug-12 04:53N 47°36' W 122°30'0 0.0
2018-Aug-12 04:23N 47°36' W 122°30'0 0.0
2018-Aug-12 03:50N 47°36' W 122°30'0 0.0
2018-Aug-12 03:26N 47°36' W 122°30'0 0.0
2018-Aug-12 02:50N 47°36' W 122°30'0 0.0
2018-Aug-12 02:26N 47°36' W 122°30'0 0.0
2018-Aug-12 01:59N 47°36' W 122°30'0 0.0
2018-Aug-12 01:23N 47°36' W 122°30'0 0.0
2018-Aug-12 00:56N 47°36' W 122°30'0 0.0
2018-Aug-12 00:29N 47°36' W 122°30'0 0.0
2018-Aug-11 23:38N 47°36' W 122°30'0 0.0
2018-Aug-11 23:26N 47°36' W 122°30'0 0.0
2018-Aug-11 22:47N 47°36' W 122°30'0 0.0
2018-Aug-11 22:29N 47°36' W 122°30'0 0.0
2018-Aug-11 21:53N 47°36' W 122°30'0 0.0
2018-Aug-11 21:26N 47°36' W 122°30'0 0.0
2018-Aug-11 20:56N 47°36' W 122°30'0 0.0
2018-Aug-11 20:23N 47°36' W 122°30'0 0.0
2018-Aug-11 19:56N 47°36' W 122°30'0 0.0
2018-Aug-11 19:26N 47°36' W 122°30'0 0.0
2018-Aug-11 18:56N 47°36' W 122°30'0 0.0
2018-Aug-11 18:26N 47°36' W 122°30'0 0.0
2018-Aug-11 17:56N 47°36' W 122°30'0 0.0
2018-Aug-11 16:56N 47°36' W 122°30'0 0.0
2018-Aug-11 16:23N 47°36' W 122°30'0 0.0
2018-Aug-11 15:56N 47°36' W 122°30'0 0.0
2018-Aug-11 15:26N 47°36' W 122°30'0 0.0
2018-Aug-11 14:59N 47°36' W 122°30'0 0.0
2018-Aug-11 14:26N 47°36' W 122°30'0 0.0
2018-Aug-11 13:47N 47°36' W 122°30'0 0.0
2018-Aug-11 13:23N 47°36' W 122°30'0 0.0
2018-Aug-11 12:56N 47°36' W 122°30'0 0.0
2018-Aug-11 12:26N 47°36' W 122°30'0 0.0
2018-Aug-11 11:59N 47°36' W 122°30'0 0.0
2018-Aug-11 11:29N 47°36' W 122°30'0 0.0
2018-Aug-11 10:53N 47°36' W 122°30'0 0.0
2018-Aug-11 10:26N 47°36' W 122°30'0 0.0
2018-Aug-11 09:59N 47°36' W 122°30'0 0.0
2018-Aug-11 09:26N 47°36' W 122°30'0 0.0
2018-Aug-11 08:53N 47°36' W 122°30'0 0.0
2018-Aug-11 08:29N 47°36' W 122°30'0 0.0
2018-Aug-11 07:53N 47°36' W 122°30'0 0.0
2018-Aug-11 04:53N 47°36' W 122°30'0 0.3
2018-Aug-11 04:24N 47°36' W 122°30'3 5.6
2018-Aug-11 03:53N 47°38' W 122°27'3 7.1
2018-Aug-11 03:30N 47°40' W 122°26'2 3.5
2018-Aug-11 03:00N 47°40' W 122°24'0 0.0
2018-Aug-11 02:30N 47°40' W 122°24'2 3.3
2018-Aug-11 02:00N 47°39' W 122°22'1 1.4
2018-Aug-11 01:28N 47°39' W 122°21'0 0.0
2018-Aug-11 00:58N 47°39' W 122°21'0 0.0
2018-Aug-11 00:29N 47°39' W 122°21'0 0.0
2018-Aug-10 23:59N 47°39' W 122°21'0 0.0
2018-Aug-10 23:29N 47°39' W 122°21'0 0.0
2018-Aug-10 22:59N 47°39' W 122°21'0 0.0
2018-Aug-10 22:29N 47°39' W 122°21'0 0.0
2018-Aug-09 23:56N 47°39' W 122°21'0 0.0
2018-Aug-09 22:50N 47°39' W 122°21'0 0.0
2018-Aug-09 22:14N 47°39' W 122°21'0 0.0
2018-Aug-09 21:56N 47°39' W 122°21'0 0.0
2018-Aug-09 19:08N 47°39' W 122°21'0 0.0
2018-Aug-09 18:56N 47°39' W 122°21'0 0.0
2018-Aug-09 17:38N 47°39' W 122°21'0 0.0
2018-Aug-09 17:14N 47°39' W 122°21'0 0.0
2018-Aug-09 16:56N 47°39' W 122°21'0 0.0
2018-Aug-09 16:26N 47°39' W 122°21'0 0.0
2018-Aug-09 15:56N 47°39' W 122°21'0 0.0
2018-Aug-09 09:41N 47°39' W 122°21'0 0.0
2018-Aug-09 08:17N 47°39' W 122°21'0 0.1
2018-Aug-09 04:23N 47°38' W 122°20'0 0.4
2018-Aug-09 03:57N 47°38' W 122°20'0 0.2
2018-Aug-09 03:30N 47°38' W 122°20'0 0.1
2018-Aug-09 03:00N 47°38' W 122°20'0 0.1
2018-Aug-09 02:30N 47°38' W 122°20'1 1.1
2018-Aug-09 01:55N 47°39' W 122°21'0 0.0
2018-Aug-09 01:25N 47°39' W 122°21'0 0.0
2018-Aug-09 00:58N 47°39' W 122°21'0 0.0
2018-Aug-09 00:22N 47°39' W 122°21'0 0.0
2018-Aug-08 23:49N 47°39' W 122°21'0 0.0
2018-Aug-08 23:19N 47°39' W 122°21'0 0.0
2018-Aug-08 22:55N 47°39' W 122°21'0 0.0
2018-Aug-08 22:28N 47°39' W 122°21'0 0.0
2018-Aug-08 21:49N 47°39' W 122°21'0 0.0
2018-Aug-08 21:19N 47°39' W 122°21'0 0.0
2018-Aug-08 20:55N 47°39' W 122°21'0 0.0
2018-Aug-08 20:28N 47°39' W 122°21'0 0.0
2018-Aug-08 19:49N 47°39' W 122°21'0 0.0
2018-Aug-08 19:28N 47°39' W 122°21'0 0.0
2018-Aug-08 18:58N 47°39' W 122°21'0 0.0
2018-Aug-08 18:28N 47°39' W 122°21'0 0.0
2018-Aug-08 17:55N 47°39' W 122°21'0 0.0
2018-Aug-08 17:28N 47°39' W 122°21'0 0.0
2018-Aug-08 16:43N 47°39' W 122°21'0 0.0
2018-Aug-08 16:28N 47°39' W 122°21'0 0.0
2018-Aug-08 15:58N 47°39' W 122°21'0 0.0
2018-Aug-08 15:28N 47°39' W 122°21'0 0.0
2018-Aug-08 14:58N 47°39' W 122°21'0 0.0
2018-Aug-08 14:28N 47°39' W 122°21'0 0.0
2018-Aug-08 13:55N 47°39' W 122°21'0 0.0
2018-Aug-08 13:28N 47°39' W 122°21'0 0.0
2018-Aug-08 12:58N 47°39' W 122°21'0 0.0
2018-Aug-08 12:25N 47°39' W 122°21'0 0.0
2018-Aug-08 11:40N 47°39' W 122°21'0 0.0
2018-Aug-08 11:28N 47°39' W 122°21'0 0.0
2018-Aug-08 10:58N 47°39' W 122°21'0 0.0
2018-Aug-08 10:25N 47°39' W 122°21'0 0.0
2018-Aug-08 09:55N 47°39' W 122°21'0 0.0
2018-Aug-08 09:28N 47°39' W 122°21'0 0.0
2018-Aug-08 08:55N 47°39' W 122°21'0 0.0
2018-Aug-08 08:30N 47°39' W 122°21'0 0.0
2018-Aug-08 08:00N 47°39' W 122°21'0 0.0
2018-Aug-08 07:30N 47°39' W 122°21'0 0.0
2018-Aug-08 07:00N 47°39' W 122°21'0 0.0
2018-Aug-08 06:30N 47°39' W 122°21'0 0.0
2018-Aug-08 06:00N 47°39' W 122°21'0 0.0
2018-Aug-08 05:18N 47°39' W 122°21'0 1.1
2018-Aug-08 04:51N 47°38' W 122°20'0 0.3
2018-Aug-08 04:26N 47°38' W 122°20'0 0.3
2018-Aug-08 03:58N 47°38' W 122°20'0 0.2
2018-Aug-08 03:28N 47°38' W 122°20'0 0.4
2018-Aug-08 02:21N 47°39' W 122°21'0 0.0
2018-Aug-08 02:00N 47°39' W 122°21'0 0.1
2018-Aug-08 01:25N 47°39' W 122°21'0 0.0
2018-Aug-08 00:43N 47°39' W 122°21'0 0.0
2018-Aug-07 20:19N 47°39' W 122°21'0 0.0
2018-Aug-07 19:55N 47°39' W 122°21'0 0.0
2018-Aug-07 19:25N 47°39' W 122°21'0 0.0
2018-Aug-07 18:43N 47°39' W 122°21'0 0.0
2018-Aug-07 18:25N 47°39' W 122°21'0 0.0
2018-Aug-07 17:49N 47°39' W 122°21'0 0.0
2018-Aug-07 17:25N 47°39' W 122°21'0 0.0
2018-Aug-07 16:49N 47°39' W 122°21'0 0.0
2018-Aug-07 16:28N 47°39' W 122°21'0 0.0
2018-Aug-07 15:58N 47°39' W 122°21'0 0.0
2018-Aug-07 15:25N 47°39' W 122°21'0 0.0
2018-Aug-07 14:58N 47°39' W 122°21'0 0.0
2018-Aug-07 14:25N 47°39' W 122°21'0 0.0
2018-Aug-07 13:37N 47°39' W 122°21'0 0.0
2018-Aug-07 13:28N 47°39' W 122°21'0 0.0
2018-Aug-07 09:22N 47°39' W 122°21'0 0.0
2018-Aug-07 08:52N 47°39' W 122°21'0 0.0
2018-Aug-07 08:25N 47°39' W 122°21'0 0.0
2018-Aug-07 07:55N 47°39' W 122°21'0 0.0
2018-Aug-07 07:25N 47°39' W 122°21'0 0.0
2018-Aug-07 06:55N 47°39' W 122°21'0 0.0
2018-Aug-07 06:25N 47°39' W 122°21'0 0.0
2018-Aug-07 05:49N 47°39' W 122°21'0 0.0
2018-Aug-07 05:28N 47°39' W 122°21'0 0.0
2018-Aug-07 04:55N 47°39' W 122°21'0 0.0
2018-Aug-07 04:22N 47°39' W 122°21'0 0.0
2018-Aug-07 03:55N 47°39' W 122°21'0 0.0
2018-Aug-07 03:25N 47°39' W 122°21'0 0.0
2018-Aug-07 00:55N 47°39' W 122°21'0 0.0
2018-Aug-06 22:28N 47°39' W 122°21'0 0.0
2018-Aug-06 20:43N 47°39' W 122°21'0 0.0
2018-Aug-06 20:25N 47°39' W 122°21'0 0.0
2018-Aug-06 19:37N 47°39' W 122°21'0 0.0
2018-Aug-06 19:22N 47°39' W 122°21'0 0.0
2018-Aug-06 18:49N 47°39' W 122°21'0 0.0
2018-Aug-06 18:13N 47°39' W 122°21'0 0.0
2018-Aug-06 17:55N 47°39' W 122°21'0 0.0
2018-Aug-06 17:22N 47°39' W 122°21'0 0.0
2018-Aug-06 16:55N 47°39' W 122°21'0 0.0
2018-Aug-06 16:25N 47°39' W 122°21'0 0.0
2018-Aug-06 15:58N 47°39' W 122°21'0 0.0
2018-Aug-06 15:25N 47°39' W 122°21'0 0.0
2018-Aug-06 14:55N 47°39' W 122°21'0 0.0
2018-Aug-06 14:25N 47°39' W 122°21'0 0.0
2018-Aug-06 13:55N 47°39' W 122°21'0 0.0
2018-Aug-06 13:25N 47°39' W 122°21'0 0.0
2018-Aug-06 09:19N 47°39' W 122°21'0 0.0
2018-Aug-06 06:16N 47°39' W 122°21'0 0.0
2018-Aug-06 05:49N 47°39' W 122°21'0 0.0
2018-Aug-06 05:25N 47°39' W 122°21'0 0.0
2018-Aug-06 04:49N 47°39' W 122°21'0 0.0
2018-Aug-05 23:31N 47°39' W 122°21'0 0.0
2018-Aug-05 23:13N 47°39' W 122°21'0 0.0
2018-Aug-05 22:52N 47°39' W 122°21'0 0.0
2018-Aug-05 22:25N 47°39' W 122°21'0 0.0
2018-Aug-05 20:55N 47°39' W 122°21'0 0.0
2018-Aug-05 20:13N 47°39' W 122°21'0 0.0
2018-Aug-05 19:55N 47°39' W 122°21'0 0.0
2018-Aug-05 19:19N 47°39' W 122°21'0 0.0
2018-Aug-05 18:52N 47°39' W 122°21'0 0.0
2018-Aug-05 18:28N 47°39' W 122°21'0 0.0
2018-Aug-05 17:58N 47°39' W 122°21'0 0.0
2018-Aug-05 17:28N 47°39' W 122°21'0 0.0
2018-Aug-05 16:55N 47°39' W 122°21'0 0.0
2018-Aug-05 16:28N 47°39' W 122°21'0 0.0
2018-Aug-05 15:58N 47°39' W 122°21'0 0.0
2018-Aug-05 15:22N 47°39' W 122°21'0 0.0
2018-Aug-05 14:55N 47°39' W 122°21'0 0.0
2018-Aug-05 14:25N 47°39' W 122°21'0 0.0
2018-Aug-05 13:28N 47°39' W 122°21'0 0.0
2018-Aug-05 11:58N 47°39' W 122°21'0 0.0
2018-Aug-05 09:52N 47°39' W 122°21'0 0.0
2018-Aug-05 09:28N 47°39' W 122°21'0 0.0
2018-Aug-05 08:40N 47°39' W 122°21'0 0.0
2018-Aug-05 08:10N 47°39' W 122°21'0 0.0
2018-Aug-05 07:55N 47°39' W 122°21'0 0.0
2018-Aug-05 03:58N 47°39' W 122°21'0 0.0
2018-Aug-05 03:28N 47°39' W 122°21'0 0.0
2018-Aug-05 02:52N 47°39' W 122°21'0 0.0
2018-Aug-05 02:22N 47°39' W 122°21'0 0.0
2018-Aug-05 01:58N 47°39' W 122°21'0 0.0
2018-Aug-05 01:25N 47°39' W 122°21'0 0.0
2018-Aug-05 00:58N 47°39' W 122°21'0 0.0
2018-Aug-04 21:04N 47°39' W 122°21'0 0.0
2018-Aug-04 19:37N 47°39' W 122°21'0 0.0
2018-Aug-04 16:01N 47°39' W 122°21'0 0.0
2018-Aug-04 15:40N 47°39' W 122°21'0 0.0
2018-Aug-04 15:13N 47°39' W 122°21'0 0.0
2018-Aug-04 14:58N 47°39' W 122°21'0 0.0
2018-Aug-04 14:16N 47°39' W 122°21'0 0.0
2018-Aug-04 10:28N 47°39' W 122°21'0 0.0
2018-Aug-04 09:58N 47°39' W 122°21'0 0.0
2018-Aug-04 09:25N 47°39' W 122°21'0 0.0
2018-Aug-04 08:58N 47°39' W 122°21'0 0.0
2018-Aug-04 08:22N 47°39' W 122°21'0 0.0
2018-Aug-04 07:58N 47°39' W 122°21'0 0.0
2018-Aug-04 07:28N 47°39' W 122°21'0 0.0
2018-Aug-04 06:40N 47°39' W 122°21'0 0.0
2018-Aug-04 06:28N 47°39' W 122°21'1 0.6
2018-Aug-04 05:13N 47°38' W 122°20'  

Dump ship's entire track history